createdAt,value
2023-02-08T00:01:44.183Z,-7.30
2023-02-08T00:04:10.716Z,-7.30
2023-02-08T00:06:37.231Z,-7.40
2023-02-08T00:09:03.824Z,-7.40
2023-02-08T00:11:30.363Z,-7.30
2023-02-08T00:13:56.874Z,-7.30
2023-02-08T00:16:23.435Z,-7.30
2023-02-08T00:18:49.951Z,-7.30
2023-02-08T00:21:17.200Z,-7.20
2023-02-08T00:23:43.992Z,-7.10
2023-02-08T00:26:10.849Z,-7.10
2023-02-08T00:28:37.422Z,-7.20
2023-02-08T00:31:04.078Z,-7.10
2023-02-08T00:33:30.662Z,-7.10
2023-02-08T00:36:00.868Z,-7.10
2023-02-08T00:38:27.987Z,-7.30
2023-02-08T00:40:54.634Z,-7.20
2023-02-08T00:43:21.147Z,-7.20
2023-02-08T00:45:47.724Z,-7.30
2023-02-08T00:48:14.231Z,-7.50
2023-02-08T00:50:41.029Z,-7.60
2023-02-08T00:53:07.752Z,-7.60
2023-02-08T00:55:34.257Z,-7.40
2023-02-08T00:58:00.788Z,-7.30
2023-02-08T01:00:27.342Z,-7.40
2023-02-08T01:02:53.901Z,-7.30
2023-02-08T01:05:20.430Z,-7.30
2023-02-08T01:07:46.939Z,-7.40
2023-02-08T01:10:13.572Z,-7.50
2023-02-08T01:12:40.077Z,-7.40
2023-02-08T01:15:06.789Z,-7.30
2023-02-08T01:17:33.391Z,-7.40
2023-02-08T01:19:59.886Z,-7.40
2023-02-08T01:22:28.317Z,-7.30
2023-02-08T01:24:54.831Z,-7.30
2023-02-08T01:27:21.360Z,-7.20
2023-02-08T01:29:47.864Z,-7.10
2023-02-08T01:32:14.607Z,-7.10
2023-02-08T01:34:43.175Z,-7.00
2023-02-08T01:37:10.491Z,-7.00
2023-02-08T01:39:36.987Z,-7.10
2023-02-08T01:42:03.563Z,-7.30
2023-02-08T01:44:48.913Z,-7.30
2023-02-08T01:47:15.771Z,-7.50
2023-02-08T01:49:42.285Z,-7.60
2023-02-08T01:52:12.105Z,-7.60
2023-02-08T01:54:41.463Z,-7.40
2023-02-08T01:57:08.311Z,-7.40
2023-02-08T01:59:43.128Z,-7.30
2023-02-08T02:02:11.329Z,-7.30
2023-02-08T02:04:37.948Z,-7.40
2023-02-08T02:07:05.367Z,-7.40
2023-02-08T02:09:40.021Z,-7.40
2023-02-08T02:12:07.697Z,-7.50
2023-02-08T02:14:34.961Z,-7.40
2023-02-08T02:17:01.661Z,-7.50
2023-02-08T02:19:37.036Z,-7.60
2023-02-08T02:22:31.882Z,-7.80
2023-02-08T02:25:10.763Z,-7.90
2023-02-08T02:28:01.644Z,-8.00
2023-02-08T02:30:54.861Z,-8.00
2023-02-08T02:33:46.938Z,-7.80
2023-02-08T02:36:18.920Z,-7.60
2023-02-08T02:38:46.485Z,-7.50
2023-02-08T02:41:13.085Z,-7.50
2023-02-08T02:43:46.371Z,-7.50
2023-02-08T02:46:21.843Z,-7.60
2023-02-08T02:48:51.410Z,-7.60
2023-02-08T02:51:17.883Z,-7.60
2023-02-08T02:53:54.189Z,-7.80
2023-02-08T02:56:29.306Z,-7.90
2023-02-08T02:58:58.547Z,-8.00
2023-02-08T03:01:30.000Z,-8.00
2023-02-08T03:03:56.827Z,-8.00
2023-02-08T03:06:46.549Z,-7.90
2023-02-08T03:09:22.467Z,-7.80
2023-02-08T03:11:56.517Z,-7.80
2023-02-08T03:14:34.025Z,-7.90
2023-02-08T03:17:03.506Z,-7.80
2023-02-08T03:19:54.530Z,-7.80
2023-02-08T03:22:23.724Z,-7.60
2023-02-08T03:25:13.620Z,-7.60
2023-02-08T03:27:51.560Z,-7.80
2023-02-08T03:30:20.891Z,-8.00
2023-02-08T03:32:50.365Z,-8.00
2023-02-08T03:35:20.263Z,-8.10
2023-02-08T03:38:07.111Z,-8.20
2023-02-08T03:40:36.577Z,-8.00
2023-02-08T03:43:15.718Z,-7.90
2023-02-08T03:45:45.600Z,-8.10
2023-02-08T03:48:13.410Z,-8.20
2023-02-08T03:50:40.822Z,-8.20
2023-02-08T03:53:08.210Z,-8.10
2023-02-08T03:55:35.996Z,-8.10
2023-02-08T03:58:08.361Z,-8.10
2023-02-08T04:00:38.007Z,-8.10
2023-02-08T04:03:16.468Z,-8.00
2023-02-08T04:05:43.027Z,-8.10
2023-02-08T04:08:09.556Z,-8.10
2023-02-08T04:10:36.067Z,-8.20
2023-02-08T04:13:02.638Z,-8.20
2023-02-08T04:15:29.337Z,-8.20
2023-02-08T04:17:55.905Z,-8.30
2023-02-08T04:20:22.429Z,-8.40
2023-02-08T04:22:48.957Z,-8.40
2023-02-08T04:25:15.884Z,-8.20
2023-02-08T04:27:42.389Z,-8.20
2023-02-08T04:30:09.165Z,-8.30
2023-02-08T04:32:35.727Z,-8.30
2023-02-08T04:35:02.236Z,-8.40
2023-02-08T04:37:28.740Z,-8.50
2023-02-08T04:39:55.269Z,-8.50
2023-02-08T04:42:21.818Z,-8.40
2023-02-08T04:44:48.375Z,-8.50
2023-02-08T04:47:16.623Z,-8.60
2023-02-08T04:49:43.176Z,-8.60
2023-02-08T04:52:09.709Z,-8.60
2023-02-08T04:54:36.200Z,-8.40
2023-02-08T04:57:02.757Z,-8.50
2023-02-08T04:59:29.328Z,-8.60
2023-02-08T05:01:56.015Z,-8.50
2023-02-08T05:04:22.548Z,-8.40
2023-02-08T05:06:49.152Z,-8.50
2023-02-08T05:09:15.640Z,-8.60
2023-02-08T05:11:42.468Z,-8.60
2023-02-08T05:14:09.063Z,-8.60
2023-02-08T05:16:35.546Z,-8.70
2023-02-08T05:19:02.161Z,-8.60
2023-02-08T05:21:28.679Z,-8.50
2023-02-08T05:23:55.241Z,-8.30
2023-02-08T05:26:21.817Z,-8.30
2023-02-08T05:28:48.362Z,-8.50
2023-02-08T05:31:17.357Z,-8.40
2023-02-08T05:33:44.033Z,-8.40
2023-02-08T05:36:10.563Z,-8.60
2023-02-08T05:38:37.111Z,-8.70
2023-02-08T05:41:03.736Z,-8.70
2023-02-08T05:43:30.281Z,-8.70
2023-02-08T05:48:47.715Z,-8.80
2023-02-08T05:51:14.250Z,-8.70
2023-02-08T05:53:40.947Z,-8.50
2023-02-08T05:56:07.565Z,-8.50
2023-02-08T05:58:34.238Z,-8.50
2023-02-08T06:01:00.899Z,-8.30
2023-02-08T06:03:27.445Z,-8.50
2023-02-08T06:05:53.953Z,-8.60
2023-02-08T06:08:20.478Z,-8.50
2023-02-08T06:10:48.666Z,-8.50
2023-02-08T06:13:15.892Z,-8.50
2023-02-08T06:15:42.452Z,-8.50
2023-02-08T06:18:09.159Z,-8.60
2023-02-08T06:20:35.645Z,-8.50
2023-02-08T06:23:02.149Z,-8.50
2023-02-08T06:25:28.815Z,-8.60
2023-02-08T06:27:57.370Z,-8.70
2023-02-08T06:30:24.219Z,-8.80
2023-02-08T06:32:50.782Z,-8.70
2023-02-08T06:35:17.498Z,-8.70
2023-02-08T06:37:44.520Z,-8.70
2023-02-08T06:40:11.124Z,-8.90
2023-02-08T06:42:37.639Z,-8.90
2023-02-08T06:45:04.397Z,-8.80
2023-02-08T06:47:30.910Z,-8.60
2023-02-08T06:49:57.409Z,-8.60
2023-02-08T06:52:24.029Z,-8.60
2023-02-08T06:54:50.520Z,-8.50
2023-02-08T06:57:17.012Z,-8.50
2023-02-08T06:59:43.616Z,-8.30
2023-02-08T07:02:14.600Z,-8.30
2023-02-08T07:04:41.296Z,-8.40
2023-02-08T07:07:08.233Z,-8.50
2023-02-08T07:09:36.077Z,-8.70
2023-02-08T07:12:05.898Z,-8.70
2023-02-08T07:14:33.654Z,-8.80
2023-02-08T07:17:00.762Z,-8.70
2023-02-08T07:19:27.821Z,-8.50
2023-02-08T07:21:54.675Z,-8.50
2023-02-08T07:24:21.435Z,-8.50
2023-02-08T07:26:47.948Z,-8.40
2023-02-08T07:29:14.455Z,-8.40
2023-02-08T07:31:41.018Z,-8.30
2023-02-08T07:34:07.541Z,-8.20
2023-02-08T07:36:35.714Z,-8.00
2023-02-08T07:39:02.818Z,-7.80
2023-02-08T07:41:29.545Z,-7.70
2023-02-08T07:43:56.070Z,-7.70
2023-02-08T07:46:23.447Z,-7.70
2023-02-08T07:48:50.016Z,-7.70
2023-02-08T07:51:16.666Z,-7.70
2023-02-08T07:53:43.204Z,-7.70
2023-02-08T07:56:10.465Z,-7.70
2023-02-08T07:58:37.142Z,-7.70
2023-02-08T08:01:19.711Z,-7.40
2023-02-08T08:03:48.903Z,-7.20
2023-02-08T08:06:15.519Z,-7.00
2023-02-08T08:08:43.206Z,-6.80
2023-02-08T08:11:09.732Z,-6.70
2023-02-08T08:13:36.242Z,-6.60
2023-02-08T08:16:02.838Z,-6.50
2023-02-08T08:18:29.803Z,-6.40
2023-02-08T08:20:56.311Z,-6.30
2023-02-08T08:23:23.767Z,-6.10
2023-02-08T08:25:50.354Z,-6.00
2023-02-08T08:28:17.018Z,-5.90
2023-02-08T08:30:44.711Z,-5.80
2023-02-08T08:33:11.898Z,-5.70
2023-02-08T08:35:38.585Z,-5.40
2023-02-08T08:38:05.133Z,-5.20
2023-02-08T08:40:31.785Z,-5.10
2023-02-08T08:42:58.458Z,-5.00
2023-02-08T08:45:25.077Z,-5.00
2023-02-08T08:47:51.613Z,-4.80
2023-02-08T08:50:18.147Z,-4.70
2023-02-08T08:52:44.654Z,-4.60
2023-02-08T08:55:11.189Z,-4.50
2023-02-08T08:57:37.835Z,-4.40
2023-02-08T09:00:04.571Z,-4.30
2023-02-08T09:02:31.122Z,-4.10
2023-02-08T09:05:00.223Z,-4.00
2023-02-08T09:07:26.859Z,-3.90
2023-02-08T09:09:53.358Z,-3.70
2023-02-08T09:12:19.860Z,-3.60
2023-02-08T09:14:46.398Z,-3.50
2023-02-08T09:17:12.907Z,-3.40
2023-02-08T09:19:39.428Z,-3.20
2023-02-08T09:22:06.676Z,-3.20
2023-02-08T09:24:33.525Z,-3.10
2023-02-08T09:27:00.007Z,-3.00
2023-02-08T09:29:29.467Z,-2.90
2023-02-08T09:31:56.565Z,-2.70
2023-02-08T09:34:23.886Z,-2.60
2023-02-08T09:36:50.409Z,-2.50
2023-02-08T09:39:18.367Z,-2.40
2023-02-08T09:42:03.713Z,-2.40
2023-02-08T09:44:46.257Z,-2.20
2023-02-08T09:47:31.198Z,-2.20
2023-02-08T09:50:01.667Z,-2.10
2023-02-08T09:52:37.541Z,-2.10
2023-02-08T09:55:21.434Z,-2.10
2023-02-08T09:57:48.758Z,-2.10
2023-02-08T10:00:25.030Z,-2.00
2023-02-08T10:02:52.516Z,-2.00
2023-02-08T10:05:23.450Z,-1.90
2023-02-08T10:07:49.940Z,-1.90
2023-02-08T10:10:21.554Z,-1.70
2023-02-08T10:12:55.299Z,-1.70
2023-02-08T10:15:28.328Z,-1.70
2023-02-08T10:18:19.710Z,-1.60
2023-02-08T10:20:52.222Z,-1.50
2023-02-08T10:23:24.938Z,-1.30
2023-02-08T10:26:08.697Z,-1.20
2023-02-08T10:28:39.484Z,-1.10
2023-02-08T10:31:26.097Z,-1.10
2023-02-08T10:34:13.088Z,-1.10
2023-02-08T10:36:43.153Z,-1.00
2023-02-08T10:39:14.447Z,-0.90
2023-02-08T10:41:41.080Z,-0.80
2023-02-08T10:44:25.447Z,-0.60
2023-02-08T10:47:00.413Z,-0.50
2023-02-08T10:49:35.456Z,-0.40
2023-02-08T10:52:02.617Z,-0.40
2023-02-08T10:54:29.223Z,-0.40
2023-02-08T10:56:57.558Z,-0.40
2023-02-08T10:59:27.371Z,-0.40
2023-02-08T11:01:54.524Z,-0.40
2023-02-08T11:04:21.067Z,-0.40
2023-02-08T11:06:48.580Z,-0.40
2023-02-08T11:09:21.714Z,-0.40
2023-02-08T11:11:50.756Z,-0.30
2023-02-08T11:14:18.010Z,-0.30
2023-02-08T11:16:51.816Z,-0.30
2023-02-08T11:19:21.864Z,-0.20
2023-02-08T11:21:49.566Z,-0.20
2023-02-08T11:24:16.054Z,-0.20
2023-02-08T11:26:42.801Z,-0.20
2023-02-08T11:29:23.601Z,-0.20
2023-02-08T11:31:56.581Z,-0.20
2023-02-08T11:34:27.312Z,-0.20
2023-02-08T11:36:54.043Z,-0.20
2023-02-08T11:39:23.602Z,-0.10
2023-02-08T11:41:52.412Z,-0.20
2023-02-08T11:44:42.269Z,-0.20
2023-02-08T11:47:10.494Z,-0.20
2023-02-08T11:49:41.191Z,-0.10
2023-02-08T11:52:18.662Z,-0.10
2023-02-08T11:54:45.311Z,-0.10
2023-02-08T11:57:13.274Z,-0.10
2023-02-08T11:59:39.920Z,-0.10
2023-02-08T12:02:24.739Z,0.00
2023-02-08T12:04:51.476Z,0.00
2023-02-08T12:07:24.615Z,0.00
2023-02-08T12:09:51.104Z,-0.10
2023-02-08T12:12:25.100Z,0.00
2023-02-08T12:14:57.969Z,0.00
2023-02-08T12:17:37.530Z,0.00
2023-02-08T12:20:04.120Z,-0.10
2023-02-08T12:22:31.213Z,0.00
2023-02-08T12:25:24.268Z,0.00
2023-02-08T12:27:58.762Z,0.10
2023-02-08T12:30:45.086Z,0.00
2023-02-08T12:33:20.796Z,0.10
2023-02-08T12:36:01.780Z,0.10
2023-02-08T12:39:17.761Z,0.10
2023-02-08T12:41:48.038Z,0.10
2023-02-08T12:44:26.807Z,0.20
2023-02-08T12:47:05.588Z,0.10
2023-02-08T12:49:37.228Z,0.20
2023-02-08T12:52:28.971Z,0.20
2023-02-08T12:54:58.300Z,0.20
2023-02-08T12:57:25.646Z,0.20
2023-02-08T13:00:00.762Z,0.10
2023-02-08T13:02:46.072Z,0.10
2023-02-08T13:05:20.183Z,0.10
2023-02-08T13:07:49.219Z,0.10
2023-02-08T13:10:20.734Z,0.20
2023-02-08T13:12:53.141Z,0.20
2023-02-08T13:15:31.112Z,0.20
2023-02-08T13:18:10.802Z,0.20
2023-02-08T13:20:43.211Z,0.20
2023-02-08T13:23:18.886Z,0.20
2023-02-08T13:25:45.827Z,0.20
2023-02-08T13:28:17.568Z,0.20
2023-02-08T13:30:46.501Z,0.10
2023-02-08T13:33:23.999Z,0.10
2023-02-08T13:35:52.955Z,0.00
2023-02-08T13:38:30.478Z,0.00
2023-02-08T13:41:04.623Z,0.00
2023-02-08T13:43:42.594Z,0.00
2023-02-08T13:46:10.445Z,-0.10
2023-02-08T13:48:41.218Z,-0.10
2023-02-08T13:51:27.708Z,-0.10
2023-02-08T13:53:57.290Z,-0.10
2023-02-08T13:56:42.811Z,0.00
2023-02-08T13:59:28.186Z,0.00
2023-02-08T14:02:14.401Z,0.00
2023-02-08T14:04:41.739Z,0.00
2023-02-08T14:07:11.018Z,-0.10
2023-02-08T14:09:44.334Z,-0.10
2023-02-08T14:12:22.407Z,-0.10
2023-02-08T14:15:07.910Z,-0.10
2023-02-08T14:17:34.458Z,-0.10
2023-02-08T14:20:02.106Z,-0.20
2023-02-08T14:22:37.300Z,-0.30
2023-02-08T14:25:15.490Z,-0.30
2023-02-08T14:27:59.151Z,-0.40
2023-02-08T14:30:30.453Z,-0.40
2023-02-08T14:33:03.005Z,-0.40
2023-02-08T14:35:30.669Z,-0.40
2023-02-08T14:38:16.039Z,-0.50
2023-02-08T14:40:49.570Z,-0.50
2023-02-08T14:43:19.271Z,-0.50
2023-02-08T14:45:47.252Z,-0.50
2023-02-08T14:48:20.220Z,-0.60
2023-02-08T14:51:05.718Z,-0.60
2023-02-08T14:53:47.613Z,-0.60
2023-02-08T14:56:14.842Z,-0.60
2023-02-08T14:58:43.495Z,-0.60
2023-02-08T15:01:15.776Z,-0.60
2023-02-08T15:03:43.212Z,-0.60
2023-02-08T15:06:37.406Z,-0.70
2023-02-08T15:09:05.663Z,-0.70
2023-02-08T15:11:33.484Z,-0.70
2023-02-08T15:14:01.404Z,-0.80
2023-02-08T15:16:32.202Z,-0.80
2023-02-08T15:18:58.890Z,-0.80
2023-02-08T15:21:29.624Z,-0.80
2023-02-08T15:24:05.824Z,-0.90
2023-02-08T15:26:32.528Z,-0.90
2023-02-08T15:29:00.808Z,-0.90
2023-02-08T15:31:30.110Z,-0.90
2023-02-08T15:33:58.177Z,-0.90
2023-02-08T15:36:36.136Z,-1.00
2023-02-08T15:39:08.828Z,-1.00
2023-02-08T15:41:35.349Z,-1.00
2023-02-08T15:44:21.846Z,-1.10
2023-02-08T15:46:49.268Z,-1.20
2023-02-08T15:49:22.645Z,-1.20
2023-02-08T15:51:50.488Z,-1.20
2023-02-08T15:54:18.431Z,-1.30
2023-02-08T15:57:11.067Z,-1.30
2023-02-08T15:59:38.253Z,-1.40
2023-02-08T16:02:19.150Z,-1.40
2023-02-08T16:04:46.525Z,-1.40
2023-02-08T16:07:31.220Z,-1.50
2023-02-08T16:09:58.388Z,-1.60
2023-02-08T16:12:26.483Z,-1.60
2023-02-08T16:14:56.767Z,-1.60
2023-02-08T16:17:42.994Z,-1.70
2023-02-08T16:20:22.666Z,-1.70
2023-02-08T16:22:56.851Z,-1.70
2023-02-08T16:25:29.174Z,-1.80
2023-02-08T16:27:55.739Z,-1.80
2023-02-08T16:30:22.557Z,-1.80
2023-02-08T16:32:49.324Z,-1.80
2023-02-08T16:35:27.036Z,-1.80
2023-02-08T16:37:55.064Z,-1.90
2023-02-08T16:40:41.674Z,-1.90
2023-02-08T16:43:27.923Z,-1.90
2023-02-08T16:46:09.695Z,-1.90
2023-02-08T16:48:40.518Z,-2.00
2023-02-08T16:51:10.561Z,-1.90
2023-02-08T16:53:42.397Z,-1.90
2023-02-08T16:56:09.954Z,-1.90
2023-02-08T16:58:36.672Z,-2.00
2023-02-08T17:01:03.312Z,-2.00
2023-02-08T17:03:30.459Z,-2.10
2023-02-08T17:05:57.054Z,-2.20
2023-02-08T17:08:23.559Z,-2.20
2023-02-08T17:10:52.021Z,-2.10
2023-02-08T17:13:20.616Z,-2.20
2023-02-08T17:15:48.751Z,-2.20
2023-02-08T17:18:15.469Z,-2.40
2023-02-08T17:20:42.375Z,-2.50
2023-02-08T17:23:09.601Z,-2.40
2023-02-08T17:25:36.314Z,-2.50
2023-02-08T17:28:08.276Z,-2.50
2023-02-08T17:30:39.240Z,-2.30
2023-02-08T17:33:07.420Z,-2.30
2023-02-08T17:35:36.940Z,-2.30
2023-02-08T17:38:04.885Z,-2.30
2023-02-08T17:40:32.734Z,-2.40
2023-02-08T17:42:59.824Z,-2.40
2023-02-08T17:45:26.807Z,-2.40
2023-02-08T17:47:54.414Z,-2.50
2023-02-08T17:50:21.306Z,-2.60
2023-02-08T17:52:47.945Z,-2.60
2023-02-08T17:55:15.646Z,-2.60
2023-02-08T17:57:42.859Z,-2.60
2023-02-08T18:00:12.321Z,-2.70
2023-02-08T18:02:42.357Z,-2.60
2023-02-08T18:05:08.989Z,-2.70
2023-02-08T18:07:35.616Z,-2.70
2023-02-08T18:10:04.044Z,-2.80
2023-02-08T18:12:30.547Z,-2.70
2023-02-08T18:14:57.114Z,-2.70
2023-02-08T18:17:23.878Z,-2.80
2023-02-08T18:19:50.386Z,-2.90
2023-02-08T18:22:16.933Z,-2.90
2023-02-08T18:24:43.493Z,-3.00
2023-02-08T18:27:10.332Z,-3.10
2023-02-08T18:29:37.057Z,-3.00
2023-02-08T18:32:05.037Z,-3.10
2023-02-08T18:34:33.295Z,-3.10
2023-02-08T18:37:00.363Z,-3.20
2023-02-08T18:39:27.137Z,-3.20
2023-02-08T18:41:54.210Z,-3.30
2023-02-08T18:44:21.061Z,-3.20
2023-02-08T18:46:49.541Z,-3.30
2023-02-08T18:49:16.264Z,-3.30
2023-02-08T18:51:46.329Z,-3.40
2023-02-08T18:54:13.810Z,-3.50
2023-02-08T18:56:41.225Z,-3.60
2023-02-08T18:59:07.832Z,-3.70
2023-02-08T19:01:34.392Z,-3.70
2023-02-08T19:04:01.767Z,-3.70
2023-02-08T19:06:28.892Z,-3.80
2023-02-08T19:08:56.512Z,-3.90
2023-02-08T19:11:24.888Z,-4.00
2023-02-08T19:13:51.910Z,-4.00
2023-02-08T19:16:19.132Z,-4.00
2023-02-08T19:18:45.737Z,-4.10
2023-02-08T19:21:13.137Z,-3.90
2023-02-08T19:23:40.059Z,-4.00
2023-02-08T19:26:07.975Z,-4.00
2023-02-08T19:28:35.062Z,-4.00
2023-02-08T19:31:12.357Z,-4.10
2023-02-08T19:33:40.424Z,-4.10
2023-02-08T19:36:08.960Z,-4.10
2023-02-08T19:38:35.868Z,-4.10
2023-02-08T19:43:54.728Z,-4.10
2023-02-08T19:46:22.462Z,-4.20
2023-02-08T19:48:49.495Z,-4.20
2023-02-08T19:51:16.440Z,-4.20
2023-02-08T19:53:43.141Z,-4.20
2023-02-08T19:56:12.573Z,-4.20
2023-02-08T19:58:39.097Z,-4.20
2023-02-08T20:01:07.206Z,-4.20
2023-02-08T20:03:33.819Z,-4.30
2023-02-08T20:06:00.363Z,-4.40
2023-02-08T20:08:27.464Z,-4.40
2023-02-08T20:10:54.568Z,-4.40
2023-02-08T20:13:21.355Z,-4.40
2023-02-08T20:15:48.232Z,-4.50
2023-02-08T20:18:15.824Z,-4.50
2023-02-08T20:20:42.925Z,-4.60
2023-02-08T20:23:21.824Z,-4.60
2023-02-08T20:25:49.253Z,-4.70
2023-02-08T20:28:15.833Z,-4.80
2023-02-08T20:30:43.353Z,-4.80
2023-02-08T20:33:09.888Z,-4.80
2023-02-08T20:35:36.567Z,-4.90
2023-02-08T20:38:03.093Z,-4.90
2023-02-08T20:40:29.819Z,-4.90
2023-02-08T20:42:56.398Z,-4.80
2023-02-08T20:45:23.018Z,-4.70
2023-02-08T20:47:49.523Z,-4.70
2023-02-08T20:50:19.489Z,-4.80
2023-02-08T20:52:46.998Z,-4.70
2023-02-08T20:55:13.608Z,-4.70
2023-02-08T20:57:40.173Z,-4.80
2023-02-08T21:00:06.995Z,-4.70
2023-02-08T21:02:33.619Z,-4.70
2023-02-08T21:05:00.258Z,-4.80
2023-02-08T21:07:26.761Z,-4.90
2023-02-08T21:09:56.093Z,-4.90
2023-02-08T21:12:23.190Z,-5.00
2023-02-08T21:14:49.872Z,-4.90
2023-02-08T21:17:16.419Z,-4.90
2023-02-08T21:19:42.903Z,-4.90
2023-02-08T21:22:09.493Z,-4.90
2023-02-08T21:24:35.999Z,-4.90
2023-02-08T21:27:02.578Z,-4.90
2023-02-08T21:29:29.413Z,-4.90
2023-02-08T21:31:57.923Z,-5.10
2023-02-08T21:34:24.768Z,-5.10
2023-02-08T21:36:51.440Z,-5.20
2023-02-08T21:39:18.131Z,-5.20
2023-02-08T21:41:44.912Z,-5.20
2023-02-08T21:44:11.584Z,-5.20
2023-02-08T21:46:38.169Z,-5.20
2023-02-08T21:49:23.323Z,-5.10
2023-02-08T21:52:08.500Z,-5.00
2023-02-08T21:54:45.616Z,-4.80
2023-02-08T21:57:19.615Z,-4.60
2023-02-08T21:59:47.837Z,-4.40
2023-02-08T22:02:21.600Z,-4.00
2023-02-08T22:05:07.204Z,-3.80
2023-02-08T22:07:44.352Z,-3.70
2023-02-08T22:10:11.643Z,-3.70
2023-02-08T22:12:40.242Z,-3.70
2023-02-08T22:15:07.840Z,-3.70
2023-02-08T22:17:34.347Z,-3.70
2023-02-08T22:20:00.889Z,-3.70
2023-02-08T22:22:27.436Z,-3.80
2023-02-08T22:24:53.982Z,-3.80
2023-02-08T22:27:20.603Z,-3.80
2023-02-08T22:29:47.120Z,-3.90
2023-02-08T22:32:16.985Z,-4.00
2023-02-08T22:34:44.378Z,-4.00
2023-02-08T22:37:11.039Z,-4.00
2023-02-08T22:39:37.547Z,-4.10
2023-02-08T22:42:08.435Z,-4.20
2023-02-08T22:44:35.595Z,-4.20
2023-02-08T22:47:02.857Z,-4.20
2023-02-08T22:49:29.408Z,-4.20
2023-02-08T22:51:55.917Z,-4.30
2023-02-08T22:54:22.438Z,-4.40
2023-02-08T22:56:48.933Z,-4.40
2023-02-08T22:59:15.430Z,-4.60
2023-02-08T23:04:32.766Z,-4.80
2023-02-08T23:06:59.671Z,-4.90
2023-02-08T23:09:26.176Z,-5.00
2023-02-08T23:11:52.759Z,-5.00
2023-02-08T23:14:19.283Z,-5.10
2023-02-08T23:16:45.994Z,-5.10
2023-02-08T23:19:13.614Z,-5.20
2023-02-08T23:21:40.135Z,-5.20
2023-02-08T23:24:06.781Z,-5.20
2023-02-08T23:26:33.262Z,-5.30
2023-02-08T23:28:59.759Z,-5.30
2023-02-08T23:31:26.419Z,-5.40
2023-02-08T23:33:53.019Z,-5.50
2023-02-08T23:36:20.689Z,-5.50
2023-02-08T23:38:47.344Z,-5.40
2023-02-08T23:41:15.459Z,-5.50
2023-02-08T23:43:42.036Z,-5.60
2023-02-08T23:46:09.513Z,-5.70
2023-02-08T23:48:39.210Z,-5.60
2023-02-08T23:51:06.966Z,-5.70
2023-02-08T23:53:33.918Z,-5.70
2023-02-08T23:56:09.628Z,-5.70
2023-02-08T23:58:36.388Z,-5.80
